Time;durP1;ratioP1;P1;durP2;ratioP2;P2;SDS_P1;SDS_P2;PMS_P1;PMS_P2;Temp;Humidity;BMP_temperature;BMP_pressure;BME280_temperature;BME280_humidity;BME280_pressure;Samples;Min_cycle;Max_cycle;Signal;HPM_P1;HPM_P2
2021/11/02 00:01:38;;;;;;;;;;;;;;;14.44;53.88;99894.56;4974980;28;19918;-83
2021/11/02 00:04:03;;;;;;;;;;;;;;;14.34;53.55;99899.91;4975982;28;19954;-86
2021/11/02 00:06:29;;;;;;;;;;;;;;;14.75;52.61;99900.34;4961428;28;19919;-85
2021/11/02 00:08:54;;;;;;;;;;;;;;;14.17;54.01;99900.34;4976751;28;20336;-87
2021/11/02 00:11:19;;;;;;;;;;;;;;;14.10;55.26;99899.97;4976016;28;19984;-85
2021/11/02 00:13:46;;;;;;;;;;;;;;;14.01;55.15;99900.69;4975684;28;19938;-86
2021/11/02 00:16:13;;;;;;;;;;;;;;;13.97;55.34;99894.59;4975352;28;19922;-85
2021/11/02 00:18:44;;;;;;;;;;;;;;;14.56;53.64;99895.47;4975040;28;19922;-86
2021/11/02 00:21:09;;;;;;;;;;;;;;;14.26;54.01;99902.34;4958705;28;19919;-86
2021/11/02 00:23:35;;;;;;;;;;;;;;;14.08;54.06;99885.59;4974930;28;19926;-89
2021/11/02 00:26:02;;;;;;;;;;;;;;;15.14;51.77;99883.59;4975458;28;19924;-87
2021/11/02 00:28:27;;;;;;;;;;;;;;;13.87;54.75;99889.97;4959758;29;19957;-85
2021/11/02 00:30:53;;;;;;;;;;;;;;;14.19;54.76;99892.91;4974808;28;19988;-85
2021/11/02 00:33:18;;;;;;;;;;;;;;;14.27;54.58;99884.19;4960471;29;19934;-87
2021/11/02 00:35:43;;;;;;;;;;;;;;;13.81;55.88;99880.44;4975757;28;19925;-86
2021/11/02 00:38:08;;;;;;;;;;;;;;;13.91;54.94;99877.88;4975110;28;20414;-83
2021/11/02 00:40:36;;;;;;;;;;;;;;;14.57;53.61;99880.00;4959912;28;19965;-84
2021/11/02 00:43:03;;;;;;;;;;;;;;;14.04;55.02;99875.06;4976262;28;19923;-87
2021/11/02 00:45:34;;;;;;;;;;;;;;;13.90;55.43;99876.16;4959031;28;19918;-85
2021/11/02 00:48:00;;;;;;;;;;;;;;;13.74;55.92;99871.91;4959521;29;19918;-85
2021/11/02 00:50:26;;;;;;;;;;;;;;;13.67;56.11;99881.50;4960715;28;19925;-86
2021/11/02 00:52:51;;;;;;;;;;;;;;;14.24;53.95;99878.97;4959901;28;20043;-88
2021/11/02 00:55:16;;;;;;;;;;;;;;;13.74;56.20;99885.50;4960207;28;19918;-86
2021/11/02 00:57:42;;;;;;;;;;;;;;;14.36;53.97;99880.72;4974349;28;19962;-84
2021/11/02 01:00:08;;;;;;;;;;;;;;;14.14;55.67;99878.81;4973737;28;20283;-87
2021/11/02 01:02:33;;;;;;;;;;;;;;;14.23;54.88;99878.09;4974733;28;20386;-86
2021/11/02 01:04:59;;;;;;;;;;;;;;;14.57;53.54;99882.72;4975442;28;19968;-89
2021/11/02 01:07:24;;;;;;;;;;;;;;;14.62;53.92;99884.13;4975310;28;19919;-86
2021/11/02 01:09:49;;;;;;;;;;;;;;;14.87;53.38;99877.56;4974933;28;19919;-87
2021/11/02 01:12:14;;;;;;;;;;;;;;;14.81;52.99;99871.72;4975706;28;19972;-88
2021/11/02 01:14:40;;;;;;;;;;;;;;;14.77;52.74;99873.84;4975773;28;19918;-87
2021/11/02 01:17:05;;;;;;;;;;;;;;;14.92;52.37;99869.03;4975398;28;20360;-89
2021/11/02 01:19:31;;;;;;;;;;;;;;;14.99;52.18;99866.66;4978162;28;19921;-84
2021/11/02 01:21:56;;;;;;;;;;;;;;;14.21;54.69;99871.06;4984109;28;19982;-84
2021/11/02 01:24:21;;;;;;;;;;;;;;;15.16;51.97;99862.56;4985305;28;19922;-83
2021/11/02 01:26:47;;;;;;;;;;;;;;;14.52;53.66;99874.91;4980548;28;19919;-86
2021/11/02 01:29:12;;;;;;;;;;;;;;;14.60;53.60;99877.00;4962774;28;19925;-87
2021/11/02 01:31:38;;;;;;;;;;;;;;;14.03;55.30;99876.09;4976185;28;19934;-87
2021/11/02 01:34:03;;;;;;;;;;;;;;;14.45;54.80;99879.13;4973732;28;19923;-86
2021/11/02 01:36:29;;;;;;;;;;;;;;;14.16;55.17;99882.28;4974038;28;20304;-86
2021/11/02 01:38:54;;;;;;;;;;;;;;;14.36;54.60;99867.13;4974236;28;19926;-87
2021/11/02 01:41:22;;;;;;;;;;;;;;;14.76;53.37;99868.53;4974366;28;19960;-87
2021/11/02 01:43:48;;;;;;;;;;;;;;;14.47;54.61;99875.28;4974311;28;20364;-88
2021/11/02 01:46:33;;;;;;;;;;;;;;;14.00;55.42;99869.88;4974550;28;19910;-87
2021/11/02 01:48:59;;;;;;;;;;;;;;;13.68;57.10;99866.94;4973896;28;19919;-87
2021/11/02 01:51:25;;;;;;;;;;;;;;;14.44;54.99;99875.53;4974382;28;19925;-87
2021/11/02 01:53:51;;;;;;;;;;;;;;;13.51;58.55;99875.47;4973928;28;20394;-88
2021/11/02 01:56:18;;;;;;;;;;;;;;;13.76;57.65;99864.47;4958481;29;19919;-90
2021/11/02 01:58:46;;;;;;;;;;;;;;;13.64;57.39;99879.00;4973876;28;19930;-89
2021/11/02 02:01:16;;;;;;;;;;;;;;;13.96;56.39;99872.94;4960022;29;19942;-88
2021/11/02 02:04:00;;;;;;;;;;;;;;;14.03;56.14;99871.50;4958558;29;19949;-88
2021/11/02 02:06:44;;;;;;;;;;;;;;;14.25;55.45;99875.25;4957693;28;19929;-87
2021/11/02 02:09:09;;;;;;;;;;;;;;;14.25;55.81;99876.13;4959309;28;19918;-86
2021/11/02 02:11:41;;;;;;;;;;;;;;;13.75;56.91;99872.75;4961004;28;19919;-88
2021/11/02 02:14:26;;;;;;;;;;;;;;;14.57;54.60;99875.44;4960324;29;20004;-88
2021/11/02 02:16:53;;;;;;;;;;;;;;;14.16;56.11;99872.28;4959936;28;19923;-85
2021/11/02 02:19:22;;;;;;;;;;;;;;;14.31;54.95;99874.75;4977002;28;19919;-88
2021/11/02 02:22:01;;;;;;;;;;;;;;;13.45;58.07;99869.53;4960931;28;19941;-88
2021/11/02 02:24:35;;;;;;;;;;;;;;;13.57;58.35;99875.03;4978212;28;19919;-87
2021/11/02 02:27:21;;;;;;;;;;;;;;;13.81;56.90;99869.56;4962371;28;20450;-89
2021/11/02 02:29:47;;;;;;;;;;;;;;;14.04;55.53;99866.91;4964013;29;19982;-85
2021/11/02 02:32:18;;;;;;;;;;;;;;;13.90;56.50;99870.72;4980620;28;19927;-86
2021/11/02 02:34:45;;;;;;;;;;;;;;;13.99;55.67;99864.56;4964384;29;19985;-88
2021/11/02 02:37:11;;;;;;;;;;;;;;;14.49;54.98;99861.56;4978768;28;19918;-88
2021/11/02 02:39:37;;;;;;;;;;;;;;;13.60;57.85;99859.38;4962222;29;19978;-86
2021/11/02 02:42:03;;;;;;;;;;;;;;;13.35;58.80;99862.22;4975779;28;19945;-86
2021/11/02 02:44:29;;;;;;;;;;;;;;;13.06;60.26;99855.22;4974993;28;19918;-89
2021/11/02 02:46:54;;;;;;;;;;;;;;;13.83;57.65;99844.00;4960656;29;19942;-87
2021/11/02 02:49:21;;;;;;;;;;;;;;;13.79;57.19;99852.50;4961130;28;20009;-88
2021/11/02 02:51:48;;;;;;;;;;;;;;;13.32;59.02;99846.97;4976545;28;19918;-87
2021/11/02 02:54:14;;;;;;;;;;;;;;;13.14;59.24;99845.63;4976783;28;19926;-87
2021/11/02 02:56:45;;;;;;;;;;;;;;;14.02;57.18;99836.25;4961880;28;19919;-88
2021/11/02 02:59:11;;;;;;;;;;;;;;;13.12;59.67;99838.47;4976537;28;19941;-87
2021/11/02 03:01:38;;;;;;;;;;;;;;;13.08;59.76;99831.50;4977267;28;19922;-88
2021/11/02 03:04:05;;;;;;;;;;;;;;;12.88;60.77;99833.00;4976885;28;19918;-85
2021/11/02 03:06:33;;;;;;;;;;;;;;;13.37;59.32;99835.78;4964447;29;20497;-86
2021/11/02 03:08:58;;;;;;;;;;;;;;;13.36;58.14;99828.59;4979095;28;19941;-89
2021/11/02 03:11:26;;;;;;;;;;;;;;;12.96;60.65;99821.56;4978510;28;19919;-88
2021/11/02 03:13:54;;;;;;;;;;;;;;;12.97;60.17;99820.59;4978451;28;20398;-87
2021/11/02 03:16:23;;;;;;;;;;;;;;;13.29;58.26;99830.91;4978311;28;19991;-86
2021/11/02 03:43:46;;;;;;;;;;;;;;;13.14;58.32;99851.91;4967112;28;19941;-88
2021/11/02 03:57:06;;;;;;;;;;;;;;;13.47;57.72;99862.13;4966748;28;19925;-87
2021/11/02 04:38:02;;;;;;;;;;;;;;;13.31;57.71;99875.09;4964405;28;19919;-86
2021/11/02 05:50:14;;;;;;;;;;;;;;;13.82;55.50;99893.91;4963290;29;19977;-87
2021/11/02 05:58:33;;;;;;;;;;;;;;;12.91;58.77;99891.63;4961444;29;20380;-84
2021/11/02 06:06:50;;;;;;;;;;;;;;;14.29;54.32;99893.94;4961541;28;19926;-86
2021/11/02 06:28:19;;;;;;;;;;;;;;;14.49;54.43;99907.81;4957993;28;19926;-89
2021/11/02 06:30:52;;;;;;;;;;;;;;;14.24;54.74;99900.75;4972084;28;19922;-86
2021/11/02 06:33:36;;;;;;;;;;;;;;;14.65;53.45;99893.91;4957946;28;19923;-86
2021/11/02 06:36:13;;;;;;;;;;;;;;;14.23;54.85;99904.44;4972689;28;20398;-84
2021/11/02 06:51:52;;;;;;;;;;;;;;;14.97;52.87;99895.88;4957054;29;19918;-86
2021/11/02 07:19:59;;;;;;;;;;;;;;;14.16;57.12;99904.91;4959697;29;19926;-87
2021/11/02 08:47:34;;;;;;;;;;;;;;;14.05;60.10;99921.19;4978935;28;19957;-89
2021/11/02 08:50:00;;;;;;;;;;;;;;;14.59;58.03;99925.16;4977720;28;19912;-88
2021/11/02 08:52:26;;;;;;;;;;;;;;;14.44;59.21;99924.50;4978018;28;20028;-91
2021/11/02 08:54:53;;;;;;;;;;;;;;;14.31;58.54;99921.00;4978618;28;19918;-91
2021/11/02 08:57:19;;;;;;;;;;;;;;;14.67;57.65;99924.56;4977547;28;19925;-87
2021/11/02 08:59:45;;;;;;;;;;;;;;;14.58;57.70;99926.13;4968803;28;19945;-87
2021/11/02 09:02:11;;;;;;;;;;;;;;;14.63;58.57;99929.41;4961602;28;20307;-87
2021/11/02 09:04:45;;;;;;;;;;;;;;;15.09;56.85;99919.38;4973167;28;20044;-85
2021/11/02 09:07:12;;;;;;;;;;;;;;;14.49;58.23;99924.16;4976070;28;20291;-86
2021/11/02 09:09:40;;;;;;;;;;;;;;;15.28;56.64;99928.78;4978262;28;20430;-89
2021/11/02 09:12:07;;;;;;;;;;;;;;;15.55;55.43;99928.34;4974998;28;19909;-90
2021/11/02 09:14:37;;;;;;;;;;;;;;;15.09;56.55;99935.72;4978193;28;20295;-89
2021/11/02 09:17:03;;;;;;;;;;;;;;;14.71;57.04;99934.25;4976970;28;19922;-89
2021/11/02 09:19:28;;;;;;;;;;;;;;;14.52;58.47;99937.50;4993564;28;20044;-88
2021/11/02 09:21:54;;;;;;;;;;;;;;;15.76;55.26;99932.03;4976543;28;19918;-88
2021/11/02 09:24:20;;;;;;;;;;;;;;;14.96;57.34;99935.00;4975988;28;19918;-90
2021/11/02 09:26:46;;;;;;;;;;;;;;;15.04;57.71;99940.69;4975746;28;19918;-89
2021/11/02 09:29:13;;;;;;;;;;;;;;;15.55;55.62;99941.97;4976719;28;19918;-90
2021/11/02 09:31:40;;;;;;;;;;;;;;;14.78;56.95;99938.22;4977196;28;19967;-89
2021/11/02 09:34:05;;;;;;;;;;;;;;;15.28;55.84;99939.66;4978201;28;19922;-89
2021/11/02 09:36:41;;;;;;;;;;;;;;;15.05;56.68;99939.69;4976873;28;19951;-88
2021/11/02 09:39:06;;;;;;;;;;;;;;;15.07;56.78;99932.28;4975927;28;20341;-87
2021/11/02 09:41:35;;;;;;;;;;;;;;;14.50;58.11;99940.34;4977515;28;19925;-91
2021/11/02 09:44:09;;;;;;;;;;;;;;;15.07;56.91;99927.69;4977159;28;19926;-89
2021/11/02 09:46:38;;;;;;;;;;;;;;;15.61;55.20;99925.13;4976448;28;19997;-91
2021/11/02 09:49:20;;;;;;;;;;;;;;;15.15;57.15;99928.94;4976523;28;19918;-90
2021/11/02 09:52:07;;;;;;;;;;;;;;;15.31;56.40;99931.25;4977033;28;19925;-89
2021/11/02 09:54:51;;;;;;;;;;;;;;;15.45;55.76;99925.53;4977211;28;19968;-88
2021/11/02 09:57:20;;;;;;;;;;;;;;;15.07;57.34;99926.84;4975975;28;20003;-88
2021/11/02 09:59:53;;;;;;;;;;;;;;;15.15;56.98;99932.50;4976088;28;19925;-86
2021/11/02 10:02:19;;;;;;;;;;;;;;;15.20;56.91;99930.28;4974991;28;19976;-86
2021/11/02 10:04:49;;;;;;;;;;;;;;;15.45;56.24;99930.97;4976803;28;20012;-88
2021/11/02 10:07:19;;;;;;;;;;;;;;;14.96;57.72;99930.44;4978021;28;19918;-89
2021/11/02 10:09:45;;;;;;;;;;;;;;;15.42;56.68;99931.25;4977141;28;20336;-89
2021/11/02 10:12:15;;;;;;;;;;;;;;;15.69;55.13;99929.94;4976542;28;20016;-90
2021/11/02 10:14:48;;;;;;;;;;;;;;;15.39;56.17;99934.22;4976417;28;19965;-89
2021/11/02 10:17:25;;;;;;;;;;;;;;;15.78;54.64;99931.94;4976412;28;19922;-89
2021/11/02 10:19:56;;;;;;;;;;;;;;;16.31;53.48;99933.78;4976994;28;19918;-86
2021/11/02 10:22:40;;;;;;;;;;;;;;;15.49;55.80;99934.31;4977434;28;20376;-88
2021/11/02 10:25:06;;;;;;;;;;;;;;;15.77;54.82;99927.41;4982100;28;20283;-85
2021/11/02 10:27:50;;;;;;;;;;;;;;;15.95;54.64;99925.03;4990983;28;19933;-91
2021/11/02 10:30:30;;;;;;;;;;;;;;;15.93;54.36;99924.31;4990999;28;19930;-91
2021/11/02 10:33:03;;;;;;;;;;;;;;;15.87;55.55;99924.84;4982902;28;19922;-89
2021/11/02 10:35:47;;;;;;;;;;;;;;;15.39;56.64;99929.63;4977616;28;19924;-89
2021/11/02 10:38:37;;;;;;;;;;;;;;;15.75;55.44;99922.09;4977525;28;19985;-89
2021/11/02 10:41:04;;;;;;;;;;;;;;;14.53;58.76;99931.94;4977060;28;19933;-89
2021/11/02 10:43:52;;;;;;;;;;;;;;;14.94;58.25;99929.66;4979692;28;19926;-89
2021/11/02 10:46:21;;;;;;;;;;;;;;;15.41;57.53;99922.22;4980289;28;19952;-89
2021/11/02 10:48:50;;;;;;;;;;;;;;;15.92;55.51;99928.88;4980235;28;20418;-89
2021/11/02 10:51:21;;;;;;;;;;;;;;;15.31;57.77;99921.22;4981254;28;19922;-89
2021/11/02 10:53:52;;;;;;;;;;;;;;;15.56;57.07;99928.22;4981895;28;19957;-89
2021/11/02 10:56:17;;;;;;;;;;;;;;;15.77;57.09;99925.59;4980931;28;19918;-89
2021/11/02 10:58:45;;;;;;;;;;;;;;;14.83;59.21;99925.09;4979863;28;20291;-90
2021/11/02 11:01:12;;;;;;;;;;;;;;;14.70;59.99;99925.22;4978829;28;19944;-89
2021/11/02 11:03:38;;;;;;;;;;;;;;;15.80;56.47;99921.75;4979657;28;19923;-91
2021/11/02 11:06:05;;;;;;;;;;;;;;;15.24;58.37;99929.03;4980817;28;19922;-87
2021/11/02 11:08:35;;;;;;;;;;;;;;;15.95;56.23;99923.16;4996527;28;19922;-88
2021/11/02 11:11:02;;;;;;;;;;;;;;;15.99;55.73;99921.06;4979489;28;19926;-87
2021/11/02 11:13:29;;;;;;;;;;;;;;;15.54;57.35;99930.22;4979113;28;19932;-87
2021/11/02 11:16:20;;;;;;;;;;;;;;;16.14;56.21;99918.88;4979249;28;19922;-87
2021/11/02 11:18:49;;;;;;;;;;;;;;;16.25;55.75;99916.06;4975165;28;19918;-87
2021/11/02 11:21:14;;;;;;;;;;;;;;;17.05;53.83;99919.16;4978126;28;19922;-87
2021/11/02 11:23:42;;;;;;;;;;;;;;;16.19;54.94;99913.03;4978657;28;19918;-87
2021/11/02 11:26:08;;;;;;;;;;;;;;;16.58;54.56;99911.41;4977919;28;20309;-88
2021/11/02 11:28:35;;;;;;;;;;;;;;;16.80;53.70;99918.59;4977479;28;19930;-85
2021/11/02 11:31:00;;;;;;;;;;;;;;;16.74;53.85;99912.78;4978754;28;19922;-88
2021/11/02 11:33:26;;;;;;;;;;;;;;;17.56;51.71;99903.63;4978949;28;19972;-88
2021/11/02 11:35:58;;;;;;;;;;;;;;;17.50;51.72;99906.91;4979076;28;19961;-87
2021/11/02 11:38:29;;;;;;;;;;;;;;;16.60;53.50;99906.66;4979718;28;19957;-88
2021/11/02 11:40:54;;;;;;;;;;;;;;;16.36;54.44;99911.56;4979443;28;19989;-87
2021/11/02 11:43:24;;;;;;;;;;;;;;;17.07;52.57;99906.19;4979615;28;19961;-88
2021/11/02 11:45:52;;;;;;;;;;;;;;;16.41;53.91;99901.09;4993725;28;19939;-87
2021/11/02 11:48:21;;;;;;;;;;;;;;;16.69;53.27;99896.81;4979206;28;19951;-89
2021/11/02 11:50:47;;;;;;;;;;;;;;;16.10;55.56;99903.75;4978145;28;20024;-88
2021/11/02 11:53:16;;;;;;;;;;;;;;;16.69;53.40;99896.81;4978449;28;19962;-90
2021/11/02 11:55:42;;;;;;;;;;;;;;;17.38;52.02;99903.44;4979574;28;20017;-88
2021/11/02 11:58:09;;;;;;;;;;;;;;;15.92;55.94;99907.06;4978974;28;20435;-88
2021/11/02 12:00:36;;;;;;;;;;;;;;;16.72;54.20;99898.41;4979447;28;19919;-87
2021/11/02 12:03:01;;;;;;;;;;;;;;;16.96;53.33;99900.84;4980909;28;20291;-89
2021/11/02 12:05:28;;;;;;;;;;;;;;;15.69;55.44;99899.94;4979517;28;19977;-88
2021/11/02 12:07:57;;;;;;;;;;;;;;;16.41;53.79;99895.63;4980875;28;20421;-85
2021/11/02 12:10:29;;;;;;;;;;;;;;;16.08;54.24;99890.25;4980127;28;19969;-88
2021/11/02 12:12:55;;;;;;;;;;;;;;;16.33;54.60;99892.72;4977781;28;19932;-87
2021/11/02 12:15:21;;;;;;;;;;;;;;;16.96;52.45;99896.25;4978457;28;19965;-87
2021/11/02 12:17:49;;;;;;;;;;;;;;;17.47;51.58;99888.06;4979336;28;19925;-88
2021/11/02 12:20:21;;;;;;;;;;;;;;;17.54;51.05;99891.94;4979887;28;19914;-86
2021/11/02 12:22:58;;;;;;;;;;;;;;;17.11;50.86;99891.25;4978446;28;19919;-89
2021/11/02 12:25:27;;;;;;;;;;;;;;;16.86;51.89;99888.97;4978303;28;19923;-88
2021/11/02 12:27:52;;;;;;;;;;;;;;;16.98;51.17;99886.06;4979143;28;20322;-87
2021/11/02 12:30:19;;;;;;;;;;;;;;;17.03;51.08;99890.22;4978700;28;19940;-88
2021/11/02 12:32:50;;;;;;;;;;;;;;;16.56;52.50;99897.03;4978473;28;19953;-89
2021/11/02 12:35:19;;;;;;;;;;;;;;;16.78;52.44;99892.41;4978320;28;20513;-89
2021/11/02 12:37:51;;;;;;;;;;;;;;;17.07;51.13;99897.16;4978591;28;19997;-85
2021/11/02 12:40:18;;;;;;;;;;;;;;;16.61;52.03;99891.16;4975253;28;19933;-84
2021/11/02 12:42:44;;;;;;;;;;;;;;;16.57;53.25;99893.28;4975218;28;20396;-85
2021/11/02 12:45:10;;;;;;;;;;;;;;;17.49;50.57;99891.50;4979306;28;19937;-85
2021/11/02 12:47:35;;;;;;;;;;;;;;;16.62;52.16;99891.03;4977942;28;20294;-85
2021/11/02 12:50:02;;;;;;;;;;;;;;;16.29;53.45;99901.19;4975684;28;19918;-84
2021/11/02 12:52:32;;;;;;;;;;;;;;;16.49;52.75;99895.84;4977261;28;19919;-87
2021/11/02 12:55:09;;;;;;;;;;;;;;;16.01;54.41;99894.50;4976008;28;19906;-84
2021/11/02 12:57:42;;;;;;;;;;;;;;;16.23;52.61;99885.34;4980205;28;20418;-86
2021/11/02 13:00:15;;;;;;;;;;;;;;;16.04;53.36;99894.22;4977734;28;20349;-87
2021/11/02 13:02:44;;;;;;;;;;;;;;;16.63;52.51;99892.75;4985184;28;19918;-85
2021/11/02 13:05:23;;;;;;;;;;;;;;;16.76;52.27;99888.94;4979517;28;20329;-86
2021/11/02 13:08:00;;;;;;;;;;;;;;;16.65;51.88;99900.81;4978675;28;19918;-85
2021/11/02 13:10:34;;;;;;;;;;;;;;;16.92;50.85;99904.84;4978386;28;19949;-86
2021/11/02 13:13:07;;;;;;;;;;;;;;;16.41;52.37;99909.28;4976202;28;19933;-86
2021/11/02 13:15:47;;;;;;;;;;;;;;;16.90;52.05;99905.00;4976372;28;19919;-87
2021/11/02 13:18:26;;;;;;;;;;;;;;;17.83;49.02;99905.66;4975760;28;19926;-84
2021/11/02 13:20:58;;;;;;;;;;;;;;;18.27;48.55;99904.38;4977882;28;19985;-85
2021/11/02 13:23:33;;;;;;;;;;;;;;;16.91;51.24;99912.19;4976640;28;19914;-86
2021/11/02 13:26:12;;;;;;;;;;;;;;;17.40;50.13;99916.97;4977579;28;19918;-86
2021/11/02 13:28:37;;;;;;;;;;;;;;;17.50;50.19;99899.56;4978650;28;19918;-86
2021/11/02 13:31:02;;;;;;;;;;;;;;;16.71;51.27;99910.31;4993430;28;19937;-85
2021/11/02 13:33:29;;;;;;;;;;;;;;;17.08;50.65;99910.66;4985795;28;19918;-84
2021/11/02 13:35:57;;;;;;;;;;;;;;;17.14;50.81;99915.59;4985304;28;19919;-85
2021/11/02 13:38:25;;;;;;;;;;;;;;;17.63;49.78;99912.09;4976800;28;19922;-85
2021/11/02 13:40:58;;;;;;;;;;;;;;;17.73;49.13;99913.00;4976333;28;20382;-85
2021/11/02 13:43:32;;;;;;;;;;;;;;;17.43;50.05;99912.06;4977114;28;19926;-88
2021/11/02 13:45:58;;;;;;;;;;;;;;;18.23;48.20;99906.53;4977029;28;19925;-86
2021/11/02 13:48:24;;;;;;;;;;;;;;;17.83;48.94;99912.97;4975967;28;19918;-88
2021/11/02 13:50:49;;;;;;;;;;;;;;;18.29;47.89;99914.16;4977197;28;19940;-91
2021/11/02 13:53:15;;;;;;;;;;;;;;;17.91;48.14;99918.66;4973264;28;19931;-88
2021/11/02 13:55:40;;;;;;;;;;;;;;;18.23;47.75;99920.22;4969428;28;20337;-88
2021/11/02 13:58:05;;;;;;;;;;;;;;;17.90;47.81;99916.91;4968307;28;20072;-86
2021/11/02 14:00:34;;;;;;;;;;;;;;;18.16;46.99;99917.22;4993164;28;20377;-88
2021/11/02 14:03:02;;;;;;;;;;;;;;;17.51;49.45;99925.03;4964511;28;20288;-87
2021/11/02 14:05:29;;;;;;;;;;;;;;;17.14;49.12;99928.41;4965529;28;19960;-88
2021/11/02 14:07:55;;;;;;;;;;;;;;;17.28;49.17;99925.25;4967731;28;19949;-89
2021/11/02 14:10:27;;;;;;;;;;;;;;;16.68;49.88;99929.72;4966912;28;19918;-88
2021/11/02 14:12:52;;;;;;;;;;;;;;;17.46;48.04;99930.94;4966059;28;19926;-87
2021/11/02 14:15:28;;;;;;;;;;;;;;;16.48;49.97;99935.91;4986159;28;19925;-89
2021/11/02 14:17:56;;;;;;;;;;;;;;;17.31;48.37;99927.72;4967830;28;19922;-89
2021/11/02 14:20:40;;;;;;;;;;;;;;;17.78;46.92;99935.31;4978014;28;19918;-89
2021/11/02 14:23:07;;;;;;;;;;;;;;;16.81;47.98;99933.09;4980417;28;19923;-88
2021/11/02 14:25:40;;;;;;;;;;;;;;;17.42;46.93;99932.22;4969511;28;19929;-88
2021/11/02 14:28:06;;;;;;;;;;;;;;;17.30;47.57;99931.47;4967558;28;19922;-89
2021/11/02 14:30:32;;;;;;;;;;;;;;;17.80;46.26;99936.03;4968112;28;19968;-87
2021/11/02 14:32:57;;;;;;;;;;;;;;;17.56;46.63;99936.44;4966939;28;19918;-87
2021/11/02 14:35:41;;;;;;;;;;;;;;;17.97;45.92;99945.44;4966940;28;19910;-87
2021/11/02 14:38:10;;;;;;;;;;;;;;;18.36;45.84;99944.59;4963795;28;19918;-88
2021/11/02 14:40:40;;;;;;;;;;;;;;;18.49;44.99;99953.34;4965724;28;19918;-88
2021/11/02 14:43:15;;;;;;;;;;;;;;;17.05;48.13;99962.88;4968883;28;19961;-86
2021/11/02 14:45:41;;;;;;;;;;;;;;;17.85;46.10;99957.50;4963385;28;20010;-86
2021/11/02 14:48:32;;;;;;;;;;;;;;;16.82;47.87;99953.97;4965558;28;20017;-85
2021/11/02 14:51:12;;;;;;;;;;;;;;;17.42;46.24;99955.94;4974082;28;19998;-88
2021/11/02 14:53:38;;;;;;;;;;;;;;;17.75;45.34;99953.88;4965958;28;19926;-87
2021/11/02 14:56:10;;;;;;;;;;;;;;;18.05;44.40;99963.88;4967011;28;19922;-87
2021/11/02 14:58:38;;;;;;;;;;;;;;;18.23;44.62;99966.78;4966205;28;19944;-86
2021/11/02 15:01:04;;;;;;;;;;;;;;;18.22;44.29;99971.38;4967018;28;19965;-86
2021/11/02 15:03:33;;;;;;;;;;;;;;;17.53;46.58;99967.66;4966820;28;19918;-90
2021/11/02 15:06:05;;;;;;;;;;;;;;;16.69;48.43;99966.97;4975577;28;20286;-91
2021/11/02 15:08:31;;;;;;;;;;;;;;;16.48;49.39;99967.81;4975330;28;19944;-88
2021/11/02 15:10:58;;;;;;;;;;;;;;;17.60;46.32;99975.28;4976427;28;19919;-88
2021/11/02 15:13:24;;;;;;;;;;;;;;;17.07;47.74;99973.66;4974854;28;19926;-87
2021/11/02 15:15:49;;;;;;;;;;;;;;;17.41;46.79;99981.56;4976875;28;19978;-87
2021/11/02 15:18:14;;;;;;;;;;;;;;;17.69;46.39;99979.91;4976254;28;19926;-87
2021/11/02 15:20:40;;;;;;;;;;;;;;;17.66;46.92;99982.94;4975550;28;19957;-89
2021/11/02 15:23:05;;;;;;;;;;;;;;;17.42;47.31;99989.66;4975019;28;20016;-87
2021/11/02 15:25:31;;;;;;;;;;;;;;;17.29;47.20;99984.41;4975084;28;19918;-88
2021/11/02 15:28:00;;;;;;;;;;;;;;;17.64;46.21;99983.06;4976460;28;20012;-89
2021/11/02 15:30:26;;;;;;;;;;;;;;;18.31;44.98;99997.00;4978956;28;20329;-86
2021/11/02 15:32:51;;;;;;;;;;;;;;;18.25;45.01;99981.16;4977035;28;19918;-89
2021/11/02 15:35:21;;;;;;;;;;;;;;;18.73;43.79;99982.16;4977148;28;20265;-88
2021/11/02 15:37:47;;;;;;;;;;;;;;;18.78;43.58;99982.56;4977679;28;19922;-87
2021/11/02 15:40:18;;;;;;;;;;;;;;;18.85;43.40;99983.72;4978602;28;20079;-88
2021/11/02 15:42:45;;;;;;;;;;;;;;;18.87;43.01;99980.84;4978654;28;19930;-86
2021/11/02 15:45:29;;;;;;;;;;;;;;;19.09;42.63;99983.22;4978120;28;19919;-89
2021/11/02 15:48:01;;;;;;;;;;;;;;;18.83;43.66;99991.22;4982278;28;19945;-86
2021/11/02 15:50:27;;;;;;;;;;;;;;;19.25;42.68;99992.72;4985935;28;19964;-87
2021/11/02 15:52:59;;;;;;;;;;;;;;;19.17;43.36;99992.59;4983653;28;19919;-87
2021/11/02 15:55:26;;;;;;;;;;;;;;;19.33;43.39;99991.97;4979794;28;19924;-87
2021/11/02 15:57:54;;;;;;;;;;;;;;;19.31;43.46;99992.13;4977530;28;19923;-88
2021/11/02 16:00:27;;;;;;;;;;;;;;;19.32;43.99;99999.31;4978008;28;19919;-88
2021/11/02 16:02:52;;;;;;;;;;;;;;;19.16;43.32;100004.56;4977127;28;19926;-89
2021/11/02 16:05:24;;;;;;;;;;;;;;;19.14;44.33;100001.97;4977057;28;19902;-88
2021/11/02 16:07:50;;;;;;;;;;;;;;;19.05;43.88;100008.34;4978289;28;19939;-87
2021/11/02 16:10:16;;;;;;;;;;;;;;;18.77;45.01;100000.88;4977435;28;19918;-85
2021/11/02 16:12:43;;;;;;;;;;;;;;;18.97;44.21;100003.63;4976870;28;19941;-87
2021/11/02 16:15:11;;;;;;;;;;;;;;;18.89;44.38;99998.03;4978202;28;19926;-87
2021/11/02 16:17:50;;;;;;;;;;;;;;;18.89;44.64;100006.25;4977345;28;20425;-87
2021/11/02 16:20:22;;;;;;;;;;;;;;;18.80;45.00;100002.47;4977131;28;19964;-87
2021/11/02 16:22:52;;;;;;;;;;;;;;;18.82;44.92;100003.19;4978044;28;19918;-86
2021/11/02 16:25:17;;;;;;;;;;;;;;;18.82;44.04;100000.44;4975772;28;20379;-84
2021/11/02 16:27:51;;;;;;;;;;;;;;;18.67;44.27;100012.88;4965905;28;19971;-86
2021/11/02 16:30:18;;;;;;;;;;;;;;;18.98;43.74;100013.56;4968715;28;19919;-85
2021/11/02 16:32:50;;;;;;;;;;;;;;;18.75;44.55;100013.88;4967957;28;19931;-85
2021/11/02 16:35:30;;;;;;;;;;;;;;;18.78;44.89;100008.09;4968739;28;19933;-85
2021/11/02 16:37:55;;;;;;;;;;;;;;;18.77;44.96;100008.25;4990436;28;19906;-84
2021/11/02 16:40:22;;;;;;;;;;;;;;;18.70;44.94;100007.09;4983019;28;19924;-83
2021/11/02 16:42:52;;;;;;;;;;;;;;;18.64;44.71;100018.66;4971611;28;19926;-84
2021/11/02 16:45:17;;;;;;;;;;;;;;;18.17;45.98;100019.38;4959144;28;19954;-83
2021/11/02 16:47:43;;;;;;;;;;;;;;;18.38;45.87;100020.09;4956054;28;19945;-85
2021/11/02 16:50:08;;;;;;;;;;;;;;;18.35;45.25;100019.53;4956614;28;20399;-83
2021/11/02 16:52:37;;;;;;;;;;;;;;;18.27;45.12;100017.50;4956382;28;19930;-86
2021/11/02 16:55:13;;;;;;;;;;;;;;;18.62;44.54;100021.53;4957241;28;19918;-84
2021/11/02 16:57:38;;;;;;;;;;;;;;;18.66;44.21;100027.56;4958387;29;20072;-84
2021/11/02 17:00:06;;;;;;;;;;;;;;;17.80;44.91;100036.38;4958594;29;19980;-87
2021/11/02 17:02:35;;;;;;;;;;;;;;;16.98;48.41;100058.19;4956906;29;20018;-85
2021/11/02 17:05:10;;;;;;;;;;;;;;;15.40;49.67;100064.06;4958651;29;19962;-93
2021/11/02 17:07:38;;;;;;;;;;;;;;;14.59;49.91;100072.16;4958142;28;19972;-88
2021/11/02 17:10:21;;;;;;;;;;;;;;;14.65;50.94;100071.69;4957280;28;19918;-88
2021/11/02 17:12:49;;;;;;;;;;;;;;;15.63;49.43;100047.69;4958318;28;19929;-86
2021/11/02 17:15:21;;;;;;;;;;;;;;;15.00;50.72;100048.16;4956523;29;19946;-91
2021/11/02 17:17:47;;;;;;;;;;;;;;;15.51;49.80;100050.41;4973140;28;19919;-90
2021/11/02 17:20:13;;;;;;;;;;;;;;;16.15;48.74;100053.44;4957141;28;19957;-86
2021/11/02 17:22:39;;;;;;;;;;;;;;;16.34;48.70;100048.16;4956601;28;19919;-88
2021/11/02 17:25:04;;;;;;;;;;;;;;;16.45;47.83;100044.53;4956482;28;20019;-88
2021/11/02 17:27:30;;;;;;;;;;;;;;;16.47;48.67;100045.25;4959184;28;20007;-86
2021/11/02 17:29:55;;;;;;;;;;;;;;;16.81;47.88;100054.16;4957182;28;19918;-86
2021/11/02 17:32:20;;;;;;;;;;;;;;;16.52;48.07;100053.94;4957274;28;19930;-87
2021/11/02 17:34:46;;;;;;;;;;;;;;;15.81;49.93;100072.63;4958057;28;19925;-87
2021/11/02 17:37:11;;;;;;;;;;;;;;;15.54;50.95;100066.53;4967233;28;19929;-89
2021/11/02 17:39:43;;;;;;;;;;;;;;;15.14;50.69;100053.41;4956078;28;22144;-90
2021/11/02 17:42:09;;;;;;;;;;;;;;;16.26;48.13;100037.03;4958325;28;19949;-90
2021/11/02 17:44:36;;;;;;;;;;;;;;;16.64;47.01;100036.50;4973998;28;19925;-86
2021/11/02 17:47:02;;;;;;;;;;;;;;;17.15;46.32;100047.63;4973135;28;19918;-89
2021/11/02 17:49:28;;;;;;;;;;;;;;;15.67;49.22;100044.59;4973299;28;19919;-89
2021/11/02 17:51:53;;;;;;;;;;;;;;;15.23;50.22;100047.19;4971801;28;19930;-89
2021/11/02 17:54:19;;;;;;;;;;;;;;;15.68;49.67;100042.72;4972585;28;20325;-88